Kumler, Illinois
Current Conditions -  °F | °C
As of 6:30 PM on Monday 22 Dec 2014 (Local Time) from KTIP Reporting Station
Light Rain Light Rain  
Wind Chill: 39°   Ceiling: 500
Heat Index: 46°   Visibility: 5mi
Dew Point: 44°   Wind: 15mph
Humidity: 95%   Direction: 140°SE
Pressure: 29.63"   Gusts: NA
Location:  40.3398°N, 88.5173°W
Report Text: KTIP 230030Z AUTO 14013KT 5SM -RA OVC005 08/07 A2963 RMK AO2 T00750067
Loading
Personal Weather Stations






























Interactive Weather Map New forecast layout! Learn more

10-Day Weather Forecast

Advertisements
Track Severe Weather on mobile